Hakon Mosby — LJIT — position and weather

sailwx.info

Track history (hours):
 
Tides and Currents Weather Stations Pressure Air Temp Water Temp Dewpoint Dewpoint Depression Visibility Wind Speed Wind Dir Waves Ship Positions

Oceanographic research ship Hakon Mosby (Norway)

Detailed information on ship capabilities available from University of Delaware's Ocean Information Center and ARCUS's ALIAS (Arctic Logistics Information and Support) project.

Last reported at 2017-Jun-24 00:27 UTC. Time now 2017-Jun-26 17:07 UTC.
Position N 70°10' E 032°02'.

Type: Cargo ship. MMSI: 258244000.

Date/timePositionNaut miles runAvg speedWind from/ knotsBaromVisibWave heightAir tempDewpointWater temp
2017-Jun-24 00:27N 70°10' E 032°02'510.1
2017-Jun-24 00:00N 70°12' E 031°50'5 9.9
2017-Jun-23 23:30N 70°14' E 031°38'5 9.9
2017-Jun-23 23:00N 70°17' E 031°26'5 9.7
2017-Jun-23 22:30N 70°20' E 031°14'3 7.0
2017-Jun-23 22:00N 70°23' E 031°08'1 1.2
2017-Jun-23 21:30N 70°23' E 031°06'0 0.0
2017-Jun-23 21:00N 70°23' E 031°06'0 0.0
2017-Jun-23 20:30N 70°23' E 031°06'0 0.0
2017-Jun-23 20:00N 70°23' E 031°06'0 0.0
2017-Jun-23 19:30N 70°23' E 031°06'0 0.0
2017-Jun-23 19:00N 70°23' E 031°06'0 0.0
2017-Jun-23 18:30N 70°23' E 031°06'0 0.0
2017-Jun-23 18:00N 70°23' E 031°06'0 0.0
2017-Jun-23 17:30N 70°23' E 031°06'0 0.0
2017-Jun-23 17:00N 70°23' E 031°06'0 0.0
2017-Jun-23 16:30N 70°23' E 031°06'0 0.0
2017-Jun-23 16:01N 70°23' E 031°06'0 0.0
2017-Jun-23 15:29N 70°23' E 031°06'0 0.0
2017-Jun-23 15:00N 70°23' E 031°06'0 0.0
2017-Jun-23 14:00N 70°23' E 031°06'0 0.0
2017-Jun-23 13:30N 70°23' E 031°06'0 0.0
2017-Jun-23 13:00N 70°23' E 031°06'0 0.0
2017-Jun-23 12:30N 70°23' E 031°06'0 0.0
2017-Jun-23 12:00N 70°23' E 031°06'0 0.0
2017-Jun-23 11:30N 70°23' E 031°06'0 0.0
2017-Jun-23 11:00N 70°23' E 031°06'0 0.0
2017-Jun-23 10:30N 70°23' E 031°06'0 0.0
2017-Jun-23 10:00N 70°23' E 031°06'0 0.0
2017-Jun-23 09:30N 70°23' E 031°06'0 0.0
2017-Jun-23 09:00N 70°23' E 031°06'0 0.0
2017-Jun-23 08:30N 70°23' E 031°06'0 0.0
2017-Jun-23 08:00N 70°23' E 031°06'0 0.0
2017-Jun-23 07:30N 70°23' E 031°06'0 0.0
2017-Jun-23 07:00N 70°23' E 031°06'0 0.0
2017-Jun-23 06:30N 70°23' E 031°06'0 0.0
2017-Jun-23 06:00N 70°23' E 031°06'0 0.0
2017-Jun-23 05:30N 70°23' E 031°06'0 0.0
2017-Jun-23 05:00N 70°23' E 031°06'0 0.0
2017-Jun-23 04:30N 70°23' E 031°06'0 0.0
2017-Jun-23 04:00N 70°23' E 031°06'0 0.0
2017-Jun-23 03:30N 70°23' E 031°06'0 0.0
2017-Jun-23 03:00N 70°23' E 031°06'0 0.0
2017-Jun-23 02:30N 70°23' E 031°06'0 0.0
2017-Jun-23 02:00N 70°23' E 031°06'0 0.0
2017-Jun-23 01:30N 70°23' E 031°06'0 0.0
2017-Jun-23 01:00N 70°23' E 031°06'0 0.0
2017-Jun-23 00:31N 70°23' E 031°06'0 0.0
2017-Jun-23 00:00N 70°23' E 031°06'0 0.0
2017-Jun-22 23:30N 70°23' E 031°06'0 0.0
2017-Jun-22 23:00N 70°23' E 031°06'0 0.0
2017-Jun-22 22:30N 70°23' E 031°06'0 0.0
2017-Jun-22 22:01N 70°23' E 031°06'0 0.0
2017-Jun-22 21:30N 70°23' E 031°06'0 0.0
2017-Jun-22 21:00N 70°23' E 031°06'0 0.0
2017-Jun-22 20:30N 70°23' E 031°06'0 0.0
2017-Jun-22 20:00N 70°23' E 031°06'0 0.0
2017-Jun-22 19:30N 70°23' E 031°06'0 0.0
2017-Jun-22 19:00N 70°23' E 031°06'0 0.0
2017-Jun-22 18:30N 70°23' E 031°06'3 6.0
2017-Jun-22 18:00N 70°26' E 031°06'5 9.1
2017-Jun-22 17:30N 70°30' E 031°02'611.4
2017-Jun-22 17:00N 70°35' E 030°53'611.6
2017-Jun-22 16:30N 70°39' E 030°43'612.0
2017-Jun-22 16:01N 70°44' E 030°33'611.9
2017-Jun-22 15:30N 70°49' E 030°22'612.0
2017-Jun-22 15:00N 70°54' E 030°12'612.2
2017-Jun-22 14:30N 70°60' E 030°02'1211.7
2017-Jun-22 13:30N 71°09' E 029°41'611.5
2017-Jun-22 13:00N 71°13' E 029°30'510.7
2017-Jun-22 12:29N 71°18' E 029°20'4 8.2
2017-Jun-22 11:59N 71°21' E 029°12'33 3.3
2017-Jun-22 02:12N 71°30' E 027°32'1 3.9
2017-Jun-22 02:00N 71°29' E 027°31'2 4.2
2017-Jun-22 01:30N 71°28' E 027°26'2 4.0
2017-Jun-22 01:00N 71°27' E 027°21'2 3.9
2017-Jun-22 00:30N 71°25' E 027°17'2 3.9
2017-Jun-22 00:00N 71°24' E 027°13'2 3.8
2017-Jun-21 23:30N 71°22' E 027°09'2 3.8
2017-Jun-21 23:00N 71°21' E 027°05'2 3.6
2017-Jun-21 22:30N 71°19' E 027°01'2 3.7
2017-Jun-21 22:00N 71°18' E 026°58'2 3.5
2017-Jun-21 21:30N 71°16' E 026°55'2 3.5
2017-Jun-21 20:59N 71°15' E 026°52'2 3.6
2017-Jun-21 20:30N 71°14' E 026°49'2 3.6
2017-Jun-21 20:00N 71°12' E 026°45'2 3.7
2017-Jun-21 19:30N 71°11' E 026°42'3 5.7
2017-Jun-21 19:00N 71°08' E 026°37'3 5.5
2017-Jun-21 18:30N 71°06' E 026°32'3 6.2
2017-Jun-21 18:00N 71°04' E 026°25'3 6.5
2017-Jun-21 17:30N 71°01' E 026°18'4 7.9
2017-Jun-21 17:00N 70°59' E 026°09'5 9.3
2017-Jun-21 16:30N 70°57' E 025°56'4 7.9
2017-Jun-21 16:00N 70°56' E 025°45'4 7.8
2017-Jun-21 15:30N 70°56' E 025°33'4 7.7
2017-Jun-21 15:00N 70°58' E 025°25'5 9.6
2017-Jun-21 14:30N 70°59' E 025°10'1010.0
2017-Jun-21 13:30N 71°01' E 024°40'4 8.7
2017-Jun-21 13:00N 70°60' E 024°27'510.4
2017-Jun-21 12:30N 70°56' E 024°17'510.5
2017-Jun-21 12:00N 70°52' E 024°05'510.4
2017-Jun-21 11:30N 70°49' E 023°52'510.5
2017-Jun-21 11:00N 70°46' E 023°40'510.6
2017-Jun-21 10:30N 70°41' E 023°34'2 0.9
2017-Jun-21 07:48N 70°40' E 023°40'0 0.0
2017-Jun-21 07:21N 70°40' E 023°40'0 0.0
2017-Jun-21 06:58N 70°40' E 023°40'1 2.6
2017-Jun-21 06:30N 70°40' E 023°37'510.7
2017-Jun-21 06:01N 70°38' E 023°22'611.6
2017-Jun-21 05:30N 70°34' E 023°08'611.8
2017-Jun-21 05:00N 70°30' E 022°55'611.6
2017-Jun-21 04:30N 70°29' E 022°38'611.5
2017-Jun-21 04:00N 70°27' E 022°21'611.6
2017-Jun-21 03:30N 70°26' E 022°05'611.5
2017-Jun-21 03:00N 70°25' E 021°48'5510.8
2017-Jun-20 21:56N 69°51' E 019°43'1210.1
2017-Jun-20 20:46N 69°46' E 019°12'8 1.1
2017-Jun-20 13:26N 69°40' E 018°59'0 0.0
2017-Jun-20 12:38N 69°40' E 018°59'0 0.0
2017-Jun-20 08:44N 69°40' E 018°59'0 0.0
2017-Jun-19 12:51N 69°40' E 018°59'0 0.0
2017-Jun-19 12:30N 69°40' E 018°59'0 0.0
2017-Jun-19 12:00N 69°40' E 018°59'0 0.0
2017-Jun-19 11:29N 69°40' E 018°59'0 0.0
2017-Jun-19 11:00N 69°40' E 018°59'0 0.0
2017-Jun-19 10:30N 69°40' E 018°59'0 0.3
2017-Jun-19 10:00N 69°40' E 018°59'5 9.3
2017-Jun-19 09:30N 69°36' E 018°53'510.7
2017-Jun-19 09:00N 69°33' E 018°40'612.3
2017-Jun-19 08:30N 69°31' E 018°23'612.2
2017-Jun-19 08:00N 69°28' E 018°08'612.5
2017-Jun-19 07:30N 69°22' E 018°06'611.7
2017-Jun-19 07:00N 69°17' E 017°58'511.0
2017-Jun-19 06:31N 69°11' E 018°01'612.1
2017-Jun-19 06:01N 69°08' E 017°46'612.8
2017-Jun-19 05:30N 69°06' E 017°29'612.1
2017-Jun-19 05:00N 69°01' E 017°18'612.8
2017-Jun-19 04:30N 68°57' E 017°06'612.8
2017-Jun-19 04:00N 68°51' E 016°56'612.6
2017-Jun-19 03:30N 68°46' E 016°47'612.4
2017-Jun-19 03:00N 68°40' E 016°40'612.5
2017-Jun-19 02:30N 68°35' E 016°32'510.9
2017-Jun-19 02:00N 68°33' E 016°18'611.7
2017-Jun-19 01:30N 68°29' E 016°07'5 9.4
2017-Jun-19 01:00N 68°25' E 015°60'4 7.7
2017-Jun-19 00:30N 68°21' E 015°58'612.6
2017-Jun-19 00:00N 68°17' E 015°46'612.7
2017-Jun-18 23:31N 68°13' E 015°34'612.7
2017-Jun-18 23:00N 68°09' E 015°20'612.6
2017-Jun-18 22:30N 68°05' E 015°07'612.7
2017-Jun-18 22:00N 68°01' E 014°54'612.5
2017-Jun-18 21:30N 67°57' E 014°41'612.3
2017-Jun-18 21:00N 67°52' E 014°29'612.0
2017-Jun-18 20:30N 67°47' E 014°20'612.0
2017-Jun-18 20:00N 67°42' E 014°15'611.6
2017-Jun-18 19:30N 67°36' E 014°20'611.9
2017-Jun-18 19:00N 67°30' E 014°23'611.8
2017-Jun-18 18:30N 67°25' E 014°27'612.6
2017-Jun-18 18:00N 67°19' E 014°23'2 3.0
2017-Jun-18 17:30N 67°17' E 014°23'0 0.0
2017-Jun-18 17:00N 67°17' E 014°23'1 2.5
2017-Jun-18 16:30N 67°19' E 014°22'2 3.1
2017-Jun-18 16:00N 67°17' E 014°23'0 0.0
2017-Jun-18 15:30N 67°17' E 014°23'0 0.0
2017-Jun-18 15:00N 67°17' E 014°23'0 0.0
2017-Jun-18 14:00N 67°17' E 014°23'0 0.0
2017-Jun-18 13:30N 67°17' E 014°23'0 0.0
2017-Jun-18 13:00N 67°17' E 014°23'0 0.0
2017-Jun-18 12:30N 67°17' E 014°23'0 0.0
2017-Jun-18 12:01N 67°17' E 014°23'0 0.0
2017-Jun-18 11:30N 67°17' E 014°23'0 0.0
2017-Jun-18 11:01N 67°17' E 014°23'0 0.0
2017-Jun-18 10:30N 67°17' E 014°23'0 0.0
2017-Jun-18 10:00N 67°17' E 014°23'0 0.0
2017-Jun-18 09:30N 67°17' E 014°23'0 0.0
2017-Jun-18 09:00N 67°17' E 014°23'0 0.0
2017-Jun-18 08:31N 67°17' E 014°23'0 0.0
2017-Jun-18 08:00N 67°17' E 014°23'0 0.0
2017-Jun-18 07:30N 67°17' E 014°23'0 0.0
2017-Jun-18 07:00N 67°17' E 014°23'0 0.0
2017-Jun-18 06:31N 67°17' E 014°23'0 0.0
2017-Jun-18 06:00N 67°17' E 014°23'0 0.0
2017-Jun-18 05:30N 67°17' E 014°23'0 0.0
2017-Jun-18 05:00N 67°17' E 014°23'0 0.0
2017-Jun-18 04:30N 67°17' E 014°23'0 0.0
2017-Jun-18 04:00N 67°17' E 014°23'0 0.0
2017-Jun-18 03:30N 67°17' E 014°23'0 0.0
2017-Jun-18 03:00N 67°17' E 014°23'0 0.0
2017-Jun-18 02:30N 67°17' E 014°23'0 0.0
2017-Jun-18 02:00N 67°17' E 014°23'0 0.0
2017-Jun-18 01:31N 67°17' E 014°23'0 0.0
2017-Jun-18 01:01N 67°17' E 014°23'0 0.0
2017-Jun-18 00:30N 67°17' E 014°23'0 0.0
2017-Jun-18 00:01N 67°17' E 014°23'0 0.0
2017-Jun-17 23:30N 67°17' E 014°23'0 0.0
2017-Jun-17 23:00N 67°17' E 014°23'0 0.0
2017-Jun-17 22:30N 67°17' E 014°23'0 0.0
2017-Jun-17 22:01N 67°17' E 014°23'0 0.0
2017-Jun-17 21:30N 67°17' E 014°23'0 0.0
2017-Jun-17 21:00N 67°17' E 014°23'0 0.0
2017-Jun-17 20:31N 67°17' E 014°23'0 0.0
2017-Jun-17 20:01N 67°17' E 014°23'0 0.0
2017-Jun-17 19:31N 67°17' E 014°23'0 0.0
2017-Jun-17 19:00N 67°17' E 014°23'0 0.0
2017-Jun-17 18:31N 67°17' E 014°23'0 0.0
2017-Jun-17 18:01N 67°17' E 014°23'0 0.0
2017-Jun-17 17:31N 67°17' E 014°23'0 0.0
2017-Jun-17 17:00N 67°17' E 014°23'0 0.0
2017-Jun-17 16:30N 67°17' E 014°23'0 0.0
2017-Jun-17 16:01N 67°17' E 014°23'0 0.0
2017-Jun-17 15:30N 67°17' E 014°23'0 0.0
2017-Jun-17 15:00N 67°17' E 014°23'0 0.0
2017-Jun-17 14:31N 67°17' E 014°23'0 0.0
2017-Jun-17 13:30N 67°17' E 014°23'0 0.0
2017-Jun-17 13:00N 67°17' E 014°23'0 0.0
2017-Jun-17 12:31N 67°17' E 014°23'0 0.0
2017-Jun-17 12:00N 67°17' E 014°23'0 0.0
2017-Jun-17 11:30N 67°17' E 014°23'0 0.0
2017-Jun-17 11:01N 67°17' E 014°23'0 0.0
2017-Jun-17 10:30N 67°17' E 014°23'0 0.0
2017-Jun-17 10:00N 67°17' E 014°23'0 0.0
2017-Jun-17 09:30N 67°17' E 014°23'0 0.0
2017-Jun-17 09:01N 67°17' E 014°23'0 0.0
2017-Jun-17 08:30N 67°17' E 014°23'0 0.0
2017-Jun-17 08:00N 67°17' E 014°23'0 0.0
2017-Jun-17 07:30N 67°17' E 014°23'0 0.0
2017-Jun-17 07:00N 67°17' E 014°23'0 0.0
2017-Jun-17 06:31N 67°17' E 014°23'0 0.0
2017-Jun-17 06:00N 67°17' E 014°23'0 0.0
2017-Jun-17 05:30N 67°17' E 014°23'0 0.0
2017-Jun-17 05:01N 67°17' E 014°23'0 0.0
2017-Jun-17 04:30N 67°17' E 014°23'0 0.0
2017-Jun-17 04:01N 67°17' E 014°23'0 0.0
2017-Jun-17 03:30N 67°17' E 014°23'0 0.0
2017-Jun-17 03:00N 67°17' E 014°23'0 0.0
2017-Jun-17 02:30N 67°17' E 014°23'0 0.0
2017-Jun-17 02:00N 67°17' E 014°23'0 0.0
2017-Jun-17 01:30N 67°17' E 014°23'0 0.0
2017-Jun-17 01:00N 67°17' E 014°23'0 0.0
2017-Jun-17 00:30N 67°17' E 014°23'0 0.0
2017-Jun-17 00:00N 67°17' E 014°23'0 0.0
2017-Jun-16 23:30N 67°17' E 014°23'0 0.0
2017-Jun-16 23:00N 67°17' E 014°23'0 0.0
2017-Jun-16 22:30N 67°17' E 014°23'0 0.0
2017-Jun-16 22:01N 67°17' E 014°23'0 0.0
2017-Jun-16 21:30N 67°17' E 014°23'0 0.0
2017-Jun-16 21:00N 67°17' E 014°23'0 0.0
2017-Jun-16 20:30N 67°17' E 014°23'0 0.0
2017-Jun-16 20:00N 67°17' E 014°23'0 0.0
2017-Jun-16 19:31N 67°17' E 014°23'0 0.0
2017-Jun-16 19:00N 67°17' E 014°23'0 0.0
2017-Jun-16 18:31N 67°17' E 014°23'0 0.0
2017-Jun-16 18:00N 67°17' E 014°23'0 0.0
2017-Jun-16 17:31N 67°17' E 014°23'0 0.0
2017-Jun-16 17:00N 67°17' E 014°23'0 0.0
2017-Jun-16 16:30N 67°17' E 014°23'0 0.0
2017-Jun-16 16:00N 67°17' E 014°23'0 0.0
2017-Jun-16 15:30N 67°17' E 014°23'0 0.0
2017-Jun-16 15:00N 67°17' E 014°23'0 0.0
2017-Jun-16 14:30N 67°17' E 014°23'0 0.0
2017-Jun-16 13:30N 67°17' E 014°23'0 0.0
2017-Jun-16 13:00N 67°17' E 014°23'0 0.0
2017-Jun-16 12:30N 67°17' E 014°23'0 0.0
2017-Jun-16 12:00N 67°17' E 014°23'0 0.0
2017-Jun-16 11:30N 67°17' E 014°23'0 0.0
2017-Jun-16 11:01N 67°17' E 014°23'0 0.0
2017-Jun-16 10:30N 67°17' E 014°23'0 0.0
2017-Jun-16 10:00N 67°17' E 014°23'0 0.0
2017-Jun-16 09:31N 67°17' E 014°23'0 0.0
2017-Jun-16 09:01N 67°17' E 014°23'0 0.0
2017-Jun-16 08:30N 67°17' E 014°23'0 0.0
2017-Jun-16 08:00N 67°17' E 014°23'0 0.0
2017-Jun-16 07:31N 67°17' E 014°23'0 0.0
2017-Jun-16 07:00N 67°17' E 014°23'0 0.0
2017-Jun-16 06:30N 67°17' E 014°23'0 0.0
2017-Jun-16 06:00N 67°17' E 014°23'0 0.0
2017-Jun-16 05:30N 67°17' E 014°23'0 0.0
2017-Jun-16 05:00N 67°17' E 014°23'0 0.0
2017-Jun-16 04:30N 67°17' E 014°23'0 0.0
2017-Jun-16 04:00N 67°17' E 014°23'0 0.0
2017-Jun-16 03:31N 67°17' E 014°23'0 0.0
2017-Jun-16 03:00N 67°17' E 014°23'0 0.0
2017-Jun-16 02:31N 67°17' E 014°23'0 0.0
2017-Jun-16 02:01N 67°17' E 014°23'0 0.0
2017-Jun-16 01:30N 67°17' E 014°23'0 0.0
2017-Jun-16 01:01N 67°17' E 014°23'0 0.0
2017-Jun-16 00:30N 67°17' E 014°23'0 0.0
2017-Jun-16 00:00N 67°17' E 014°23'0 0.0
2017-Jun-15 23:30N 67°17' E 014°23'0 0.0
2017-Jun-15 23:00N 67°17' E 014°23'0 0.0
2017-Jun-15 22:30N 67°17' E 014°23'0 0.0
2017-Jun-15 22:01N 67°17' E 014°23'0 0.0
2017-Jun-15 21:31N 67°17' E 014°23'0 0.0
2017-Jun-15 21:01N 67°17' E 014°23'0 0.0
2017-Jun-15 20:30N 67°17' E 014°23'0 0.0
2017-Jun-15 20:01N 67°17' E 014°23'0 0.0
2017-Jun-15 19:30N 67°17' E 014°23'0 0.0
2017-Jun-15 19:00N 67°17' E 014°23'0 0.0
2017-Jun-15 18:30N 67°17' E 014°23'0 0.0
2017-Jun-15 18:00N 67°17' E 014°23'0 0.0
2017-Jun-15 17:30N 67°17' E 014°23'0 0.0
2017-Jun-15 17:01N 67°17' E 014°23'0 0.0
2017-Jun-15 16:30N 67°17' E 014°23'0 0.0
2017-Jun-15 16:00N 67°17' E 014°23'0 0.0
2017-Jun-15 15:30N 67°17' E 014°23'0 0.0
2017-Jun-15 15:00N 67°17' E 014°23'0 0.0
2017-Jun-15 14:00N 67°17' E 014°23'0 0.0
2017-Jun-15 13:31N 67°17' E 014°23'0 0.0
2017-Jun-15 13:00N 67°17' E 014°23'0 0.0
2017-Jun-15 12:30N 67°17' E 014°23'0 0.0
2017-Jun-15 12:00N 67°17' E 014°23'0 0.0
2017-Jun-15 11:30N 67°17' E 014°23'0 0.0
2017-Jun-15 11:00N 67°17' E 014°23'0 0.0
2017-Jun-15 10:30N 67°17' E 014°23'0 0.0
2017-Jun-15 10:01N 67°17' E 014°23'0 0.0
2017-Jun-15 09:31N 67°17' E 014°23'0 0.0
2017-Jun-15 09:00N 67°17' E 014°23'0 0.0
2017-Jun-15 08:30N 67°17' E 014°23'0 0.0
2017-Jun-15 08:01N 67°17' E 014°23'0 0.0
2017-Jun-15 07:30N 67°17' E 014°23'0 0.0
2017-Jun-15 07:00N 67°17' E 014°23'0 0.0
2017-Jun-15 06:31N 67°17' E 014°23'0 0.0
2017-Jun-15 06:00N 67°17' E 014°23'0 0.0
2017-Jun-15 05:30N 67°17' E 014°23'0 0.0
2017-Jun-15 05:00N 67°17' E 014°23'1 2.2
2017-Jun-15 04:31N 67°17' E 014°20'3 6.4
2017-Jun-15 04:00N 67°15' E 014°13'4 8.2
2017-Jun-15 03:30N 67°12' E 014°07'4 8.5
2017-Jun-15 03:01N 67°08' E 014°02'4 7.2
2017-Jun-15 02:30N 67°05' E 013°56'3 6.7
2017-Jun-15 02:00N 67°03' E 013°51'4 8.3
2017-Jun-15 01:30N 67°01' E 013°42'4 8.5
2017-Jun-15 01:00N 66°58' E 013°33'4 7.8
2017-Jun-15 00:29N 66°54' E 013°28'4 8.4
2017-Jun-15 00:00N 66°52' E 013°20'4 8.2
2017-Jun-14 23:30N 66°48' E 013°15'4 8.5
2017-Jun-14 23:01N 66°44' E 013°12'4 8.5
2017-Jun-14 22:30N 66°40' E 013°08'4 8.4
2017-Jun-14 22:00N 66°36' E 013°04'4 7.4
2017-Jun-14 21:30N 66°33' E 013°01'2 3.9
2017-Jun-14 21:00N 66°32' E 012°57'1 1.3
2017-Jun-14 20:30N 66°31' E 012°57'2 4.3
2017-Jun-14 20:00N 66°29' E 012°59'3 6.3
2017-Jun-14 19:30N 66°26' E 012°60'5 9.8
2017-Jun-14 19:00N 66°21' E 012°59'5 9.9
2017-Jun-14 18:30N 66°16' E 012°56'612.4
2017-Jun-14 18:00N 66°11' E 012°50'712.8
2017-Jun-14 17:29N 66°05' E 012°41'612.9
2017-Jun-14 17:00N 66°00' E 012°31'612.9
2017-Jun-14 16:30N 65°55' E 012°23'612.7
2017-Jun-14 16:00N 65°49' E 012°21'612.4
2017-Jun-14 15:30N 65°43' E 012°16'612.4
2017-Jun-14 15:00N 65°37' E 012°11'1211.6
2017-Jun-14 14:00N 65°29' E 011°50'611.8
2017-Jun-14 13:30N 65°27' E 011°37'611.7
2017-Jun-14 13:00N 65°23' E 011°26'611.2
2017-Jun-14 12:30N 65°19' E 011°17'510.7
2017-Jun-14 12:00N 65°17' E 011°05'611.8
2017-Jun-14 11:30N 65°16' E 010°51'612.0
2017-Jun-14 11:00N 65°14' E 010°38'4 8.7
2017-Jun-14 10:30N 65°11' E 010°30'9211.5
2017-Jun-14 02:27N 63°59' E 008°15'511.8
2017-Jun-14 01:59N 63°55' E 008°07'611.7
2017-Jun-14 01:30N 63°50' E 007°59'611.6
2017-Jun-14 01:00N 63°46' E 007°50'611.5
2017-Jun-14 00:30N 63°41' E 007°42'  
Track history (hours):
 
Tides and Currents Weather Stations Pressure Air Temp Water Temp Dewpoint Dewpoint Depression Visibility Wind Speed Wind Dir Waves Ship Positions

Oceanographic research ship Hakon Mosby (Norway)

Detailed information on ship capabilities available from University of Delaware's Ocean Information Center and ARCUS's ALIAS (Arctic Logistics Information and Support) project.

Last reported at 2017-Jun-24 00:27 UTC. Time now 2017-Jun-26 17:07 UTC.
Position N 70°10' E 032°02'.

Type: Cargo ship. MMSI: 258244000.

Date/timePositionNaut miles runAvg speedWind from/ knotsBaromVisibWave heightAir tempDewpointWater temp
2017-Jun-24 00:27N 70°10' E 032°02'510.1
2017-Jun-24 00:00N 70°12' E 031°50'5 9.9
2017-Jun-23 23:30N 70°14' E 031°38'5 9.9
2017-Jun-23 23:00N 70°17' E 031°26'5 9.7
2017-Jun-23 22:30N 70°20' E 031°14'3 7.0
2017-Jun-23 22:00N 70°23' E 031°08'1 1.2
2017-Jun-23 21:30N 70°23' E 031°06'0 0.0
2017-Jun-23 21:00N 70°23' E 031°06'0 0.0
2017-Jun-23 20:30N 70°23' E 031°06'0 0.0
2017-Jun-23 20:00N 70°23' E 031°06'0 0.0
2017-Jun-23 19:30N 70°23' E 031°06'0 0.0
2017-Jun-23 19:00N 70°23' E 031°06'0 0.0
2017-Jun-23 18:30N 70°23' E 031°06'0 0.0
2017-Jun-23 18:00N 70°23' E 031°06'0 0.0
2017-Jun-23 17:30N 70°23' E 031°06'0 0.0
2017-Jun-23 17:00N 70°23' E 031°06'0 0.0
2017-Jun-23 16:30N 70°23' E 031°06'0 0.0
2017-Jun-23 16:01N 70°23' E 031°06'0 0.0
2017-Jun-23 15:29N 70°23' E 031°06'0 0.0
2017-Jun-23 15:00N 70°23' E 031°06'0 0.0
2017-Jun-23 14:00N 70°23' E 031°06'0 0.0
2017-Jun-23 13:30N 70°23' E 031°06'0 0.0
2017-Jun-23 13:00N 70°23' E 031°06'0 0.0
2017-Jun-23 12:30N 70°23' E 031°06'0 0.0
2017-Jun-23 12:00N 70°23' E 031°06'0 0.0
2017-Jun-23 11:30N 70°23' E 031°06'0 0.0
2017-Jun-23 11:00N 70°23' E 031°06'0 0.0
2017-Jun-23 10:30N 70°23' E 031°06'0 0.0
2017-Jun-23 10:00N 70°23' E 031°06'0 0.0
2017-Jun-23 09:30N 70°23' E 031°06'0 0.0
2017-Jun-23 09:00N 70°23' E 031°06'0 0.0
2017-Jun-23 08:30N 70°23' E 031°06'0 0.0
2017-Jun-23 08:00N 70°23' E 031°06'0 0.0
2017-Jun-23 07:30N 70°23' E 031°06'0 0.0
2017-Jun-23 07:00N 70°23' E 031°06'0 0.0
2017-Jun-23 06:30N 70°23' E 031°06'0 0.0
2017-Jun-23 06:00N 70°23' E 031°06'0 0.0
2017-Jun-23 05:30N 70°23' E 031°06'0 0.0
2017-Jun-23 05:00N 70°23' E 031°06'0 0.0
2017-Jun-23 04:30N 70°23' E 031°06'0 0.0
2017-Jun-23 04:00N 70°23' E 031°06'0 0.0
2017-Jun-23 03:30N 70°23' E 031°06'0 0.0
2017-Jun-23 03:00N 70°23' E 031°06'0 0.0
2017-Jun-23 02:30N 70°23' E 031°06'0 0.0
2017-Jun-23 02:00N 70°23' E 031°06'0 0.0
2017-Jun-23 01:30N 70°23' E 031°06'0 0.0
2017-Jun-23 01:00N 70°23' E 031°06'0 0.0
2017-Jun-23 00:31N 70°23' E 031°06'0 0.0
2017-Jun-23 00:00N 70°23' E 031°06'0 0.0
2017-Jun-22 23:30N 70°23' E 031°06'0 0.0
2017-Jun-22 23:00N 70°23' E 031°06'0 0.0
2017-Jun-22 22:30N 70°23' E 031°06'0 0.0
2017-Jun-22 22:01N 70°23' E 031°06'0 0.0
2017-Jun-22 21:30N 70°23' E 031°06'0 0.0
2017-Jun-22 21:00N 70°23' E 031°06'0 0.0
2017-Jun-22 20:30N 70°23' E 031°06'0 0.0
2017-Jun-22 20:00N 70°23' E 031°06'0 0.0
2017-Jun-22 19:30N 70°23' E 031°06'0 0.0
2017-Jun-22 19:00N 70°23' E 031°06'0 0.0
2017-Jun-22 18:30N 70°23' E 031°06'3 6.0
2017-Jun-22 18:00N 70°26' E 031°06'5 9.1
2017-Jun-22 17:30N 70°30' E 031°02'611.4
2017-Jun-22 17:00N 70°35' E 030°53'611.6
2017-Jun-22 16:30N 70°39' E 030°43'612.0
2017-Jun-22 16:01N 70°44' E 030°33'611.9
2017-Jun-22 15:30N 70°49' E 030°22'612.0
2017-Jun-22 15:00N 70°54' E 030°12'612.2
2017-Jun-22 14:30N 70°60' E 030°02'1211.7
2017-Jun-22 13:30N 71°09' E 029°41'611.5
2017-Jun-22 13:00N 71°13' E 029°30'510.7
2017-Jun-22 12:29N 71°18' E 029°20'4 8.2
2017-Jun-22 11:59N 71°21' E 029°12'33 3.3
2017-Jun-22 02:12N 71°30' E 027°32'1 3.9
2017-Jun-22 02:00N 71°29' E 027°31'2 4.2
2017-Jun-22 01:30N 71°28' E 027°26'2 4.0
2017-Jun-22 01:00N 71°27' E 027°21'2 3.9
2017-Jun-22 00:30N 71°25' E 027°17'2 3.9
2017-Jun-22 00:00N 71°24' E 027°13'2 3.8
2017-Jun-21 23:30N 71°22' E 027°09'2 3.8
2017-Jun-21 23:00N 71°21' E 027°05'2 3.6
2017-Jun-21 22:30N 71°19' E 027°01'2 3.7
2017-Jun-21 22:00N 71°18' E 026°58'2 3.5
2017-Jun-21 21:30N 71°16' E 026°55'2 3.5
2017-Jun-21 20:59N 71°15' E 026°52'2 3.6
2017-Jun-21 20:30N 71°14' E 026°49'2 3.6
2017-Jun-21 20:00N 71°12' E 026°45'2 3.7
2017-Jun-21 19:30N 71°11' E 026°42'3 5.7
2017-Jun-21 19:00N 71°08' E 026°37'3 5.5
2017-Jun-21 18:30N 71°06' E 026°32'3 6.2
2017-Jun-21 18:00N 71°04' E 026°25'3 6.5
2017-Jun-21 17:30N 71°01' E 026°18'4 7.9
2017-Jun-21 17:00N 70°59' E 026°09'5 9.3
2017-Jun-21 16:30N 70°57' E 025°56'4 7.9
2017-Jun-21 16:00N 70°56' E 025°45'4 7.8
2017-Jun-21 15:30N 70°56' E 025°33'4 7.7
2017-Jun-21 15:00N 70°58' E 025°25'5 9.6
2017-Jun-21 14:30N 70°59' E 025°10'1010.0
2017-Jun-21 13:30N 71°01' E 024°40'4 8.7
2017-Jun-21 13:00N 70°60' E 024°27'510.4
2017-Jun-21 12:30N 70°56' E 024°17'510.5
2017-Jun-21 12:00N 70°52' E 024°05'510.4
2017-Jun-21 11:30N 70°49' E 023°52'510.5
2017-Jun-21 11:00N 70°46' E 023°40'510.6
2017-Jun-21 10:30N 70°41' E 023°34'2 0.9
2017-Jun-21 07:48N 70°40' E 023°40'0 0.0
2017-Jun-21 07:21N 70°40' E 023°40'0 0.0
2017-Jun-21 06:58N 70°40' E 023°40'1 2.6
2017-Jun-21 06:30N 70°40' E 023°37'510.7
2017-Jun-21 06:01N 70°38' E 023°22'611.6
2017-Jun-21 05:30N 70°34' E 023°08'611.8
2017-Jun-21 05:00N 70°30' E 022°55'611.6
2017-Jun-21 04:30N 70°29' E 022°38'611.5
2017-Jun-21 04:00N 70°27' E 022°21'611.6
2017-Jun-21 03:30N 70°26' E 022°05'611.5
2017-Jun-21 03:00N 70°25' E 021°48'5510.8
2017-Jun-20 21:56N 69°51' E 019°43'1210.1
2017-Jun-20 20:46N 69°46' E 019°12'8 1.1
2017-Jun-20 13:26N 69°40' E 018°59'0 0.0
2017-Jun-20 12:38N 69°40' E 018°59'0 0.0
2017-Jun-20 08:44N 69°40' E 018°59'0 0.0
2017-Jun-19 12:51N 69°40' E 018°59'0 0.0
2017-Jun-19 12:30N 69°40' E 018°59'0 0.0
2017-Jun-19 12:00N 69°40' E 018°59'0 0.0
2017-Jun-19 11:29N 69°40' E 018°59'0 0.0
2017-Jun-19 11:00N 69°40' E 018°59'0 0.0
2017-Jun-19 10:30N 69°40' E 018°59'0 0.3
2017-Jun-19 10:00N 69°40' E 018°59'5 9.3
2017-Jun-19 09:30N 69°36' E 018°53'510.7
2017-Jun-19 09:00N 69°33' E 018°40'612.3
2017-Jun-19 08:30N 69°31' E 018°23'612.2
2017-Jun-19 08:00N 69°28' E 018°08'612.5
2017-Jun-19 07:30N 69°22' E 018°06'611.7
2017-Jun-19 07:00N 69°17' E 017°58'511.0
2017-Jun-19 06:31N 69°11' E 018°01'612.1
2017-Jun-19 06:01N 69°08' E 017°46'612.8
2017-Jun-19 05:30N 69°06' E 017°29'612.1
2017-Jun-19 05:00N 69°01' E 017°18'612.8
2017-Jun-19 04:30N 68°57' E 017°06'612.8
2017-Jun-19 04:00N 68°51' E 016°56'612.6
2017-Jun-19 03:30N 68°46' E 016°47'612.4
2017-Jun-19 03:00N 68°40' E 016°40'612.5
2017-Jun-19 02:30N 68°35' E 016°32'510.9
2017-Jun-19 02:00N 68°33' E 016°18'611.7
2017-Jun-19 01:30N 68°29' E 016°07'5 9.4
2017-Jun-19 01:00N 68°25' E 015°60'4 7.7
2017-Jun-19 00:30N 68°21' E 015°58'612.6
2017-Jun-19 00:00N 68°17' E 015°46'612.7
2017-Jun-18 23:31N 68°13' E 015°34'612.7
2017-Jun-18 23:00N 68°09' E 015°20'612.6
2017-Jun-18 22:30N 68°05' E 015°07'612.7
2017-Jun-18 22:00N 68°01' E 014°54'612.5
2017-Jun-18 21:30N 67°57' E 014°41'612.3
2017-Jun-18 21:00N 67°52' E 014°29'612.0
2017-Jun-18 20:30N 67°47' E 014°20'612.0
2017-Jun-18 20:00N 67°42' E 014°15'611.6
2017-Jun-18 19:30N 67°36' E 014°20'611.9
2017-Jun-18 19:00N 67°30' E 014°23'611.8
2017-Jun-18 18:30N 67°25' E 014°27'612.6
2017-Jun-18 18:00N 67°19' E 014°23'2 3.0
2017-Jun-18 17:30N 67°17' E 014°23'0 0.0
2017-Jun-18 17:00N 67°17' E 014°23'1 2.5
2017-Jun-18 16:30N 67°19' E 014°22'2 3.1
2017-Jun-18 16:00N 67°17' E 014°23'0 0.0
2017-Jun-18 15:30N 67°17' E 014°23'0 0.0
2017-Jun-18 15:00N 67°17' E 014°23'0 0.0
2017-Jun-18 14:00N 67°17' E 014°23'0 0.0
2017-Jun-18 13:30N 67°17' E 014°23'0 0.0
2017-Jun-18 13:00N 67°17' E 014°23'0 0.0
2017-Jun-18 12:30N 67°17' E 014°23'0 0.0
2017-Jun-18 12:01N 67°17' E 014°23'0 0.0
2017-Jun-18 11:30N 67°17' E 014°23'0 0.0
2017-Jun-18 11:01N 67°17' E 014°23'0 0.0
2017-Jun-18 10:30N 67°17' E 014°23'0 0.0
2017-Jun-18 10:00N 67°17' E 014°23'0 0.0
2017-Jun-18 09:30N 67°17' E 014°23'0 0.0
2017-Jun-18 09:00N 67°17' E 014°23'0 0.0
2017-Jun-18 08:31N 67°17' E 014°23'0 0.0
2017-Jun-18 08:00N 67°17' E 014°23'0 0.0
2017-Jun-18 07:30N 67°17' E 014°23'0 0.0
2017-Jun-18 07:00N 67°17' E 014°23'0 0.0
2017-Jun-18 06:31N 67°17' E 014°23'0 0.0
2017-Jun-18 06:00N 67°17' E 014°23'0 0.0
2017-Jun-18 05:30N 67°17' E 014°23'0 0.0
2017-Jun-18 05:00N 67°17' E 014°23'0 0.0
2017-Jun-18 04:30N 67°17' E 014°23'0 0.0
2017-Jun-18 04:00N 67°17' E 014°23'0 0.0
2017-Jun-18 03:30N 67°17' E 014°23'0 0.0
2017-Jun-18 03:00N 67°17' E 014°23'0 0.0
2017-Jun-18 02:30N 67°17' E 014°23'0 0.0
2017-Jun-18 02:00N 67°17' E 014°23'0 0.0
2017-Jun-18 01:31N 67°17' E 014°23'0 0.0
2017-Jun-18 01:01N 67°17' E 014°23'0 0.0
2017-Jun-18 00:30N 67°17' E 014°23'0 0.0
2017-Jun-18 00:01N 67°17' E 014°23'0 0.0
2017-Jun-17 23:30N 67°17' E 014°23'0 0.0
2017-Jun-17 23:00N 67°17' E 014°23'0 0.0
2017-Jun-17 22:30N 67°17' E 014°23'0 0.0
2017-Jun-17 22:01N 67°17' E 014°23'0 0.0
2017-Jun-17 21:30N 67°17' E 014°23'0 0.0
2017-Jun-17 21:00N 67°17' E 014°23'0 0.0
2017-Jun-17 20:31N 67°17' E 014°23'0 0.0
2017-Jun-17 20:01N 67°17' E 014°23'0 0.0
2017-Jun-17 19:31N 67°17' E 014°23'0 0.0
2017-Jun-17 19:00N 67°17' E 014°23'0 0.0
2017-Jun-17 18:31N 67°17' E 014°23'0 0.0
2017-Jun-17 18:01N 67°17' E 014°23'0 0.0
2017-Jun-17 17:31N 67°17' E 014°23'0 0.0
2017-Jun-17 17:00N 67°17' E 014°23'0 0.0
2017-Jun-17 16:30N 67°17' E 014°23'0 0.0
2017-Jun-17 16:01N 67°17' E 014°23'0 0.0
2017-Jun-17 15:30N 67°17' E 014°23'0 0.0
2017-Jun-17 15:00N 67°17' E 014°23'0 0.0
2017-Jun-17 14:31N 67°17' E 014°23'0 0.0
2017-Jun-17 13:30N 67°17' E 014°23'0 0.0
2017-Jun-17 13:00N 67°17' E 014°23'0 0.0
2017-Jun-17 12:31N 67°17' E 014°23'0 0.0
2017-Jun-17 12:00N 67°17' E 014°23'0 0.0
2017-Jun-17 11:30N 67°17' E 014°23'0 0.0
2017-Jun-17 11:01N 67°17' E 014°23'0 0.0
2017-Jun-17 10:30N 67°17' E 014°23'0 0.0
2017-Jun-17 10:00N 67°17' E 014°23'0 0.0
2017-Jun-17 09:30N 67°17' E 014°23'0 0.0
2017-Jun-17 09:01N 67°17' E 014°23'0 0.0
2017-Jun-17 08:30N 67°17' E 014°23'0 0.0
2017-Jun-17 08:00N 67°17' E 014°23'0 0.0
2017-Jun-17 07:30N 67°17' E 014°23'0 0.0
2017-Jun-17 07:00N 67°17' E 014°23'0 0.0
2017-Jun-17 06:31N 67°17' E 014°23'0 0.0
2017-Jun-17 06:00N 67°17' E 014°23'0 0.0
2017-Jun-17 05:30N 67°17' E 014°23'0 0.0
2017-Jun-17 05:01N 67°17' E 014°23'0 0.0
2017-Jun-17 04:30N 67°17' E 014°23'0 0.0
2017-Jun-17 04:01N 67°17' E 014°23'0 0.0
2017-Jun-17 03:30N 67°17' E 014°23'0 0.0
2017-Jun-17 03:00N 67°17' E 014°23'0 0.0
2017-Jun-17 02:30N 67°17' E 014°23'0 0.0
2017-Jun-17 02:00N 67°17' E 014°23'0 0.0
2017-Jun-17 01:30N 67°17' E 014°23'0 0.0
2017-Jun-17 01:00N 67°17' E 014°23'0 0.0
2017-Jun-17 00:30N 67°17' E 014°23'0 0.0
2017-Jun-17 00:00N 67°17' E 014°23'0 0.0
2017-Jun-16 23:30N 67°17' E 014°23'0 0.0
2017-Jun-16 23:00N 67°17' E 014°23'0 0.0
2017-Jun-16 22:30N 67°17' E 014°23'0 0.0
2017-Jun-16 22:01N 67°17' E 014°23'0 0.0
2017-Jun-16 21:30N 67°17' E 014°23'0 0.0
2017-Jun-16 21:00N 67°17' E 014°23'0 0.0
2017-Jun-16 20:30N 67°17' E 014°23'0 0.0
2017-Jun-16 20:00N 67°17' E 014°23'0 0.0
2017-Jun-16 19:31N 67°17' E 014°23'0 0.0
2017-Jun-16 19:00N 67°17' E 014°23'0 0.0
2017-Jun-16 18:31N 67°17' E 014°23'0 0.0
2017-Jun-16 18:00N 67°17' E 014°23'0 0.0
2017-Jun-16 17:31N 67°17' E 014°23'0 0.0
2017-Jun-16 17:00N 67°17' E 014°23'0 0.0
2017-Jun-16 16:30N 67°17' E 014°23'0 0.0
2017-Jun-16 16:00N 67°17' E 014°23'0 0.0
2017-Jun-16 15:30N 67°17' E 014°23'0 0.0
2017-Jun-16 15:00N 67°17' E 014°23'0 0.0
2017-Jun-16 14:30N 67°17' E 014°23'0 0.0
2017-Jun-16 13:30N 67°17' E 014°23'0 0.0
2017-Jun-16 13:00N 67°17' E 014°23'0 0.0
2017-Jun-16 12:30N 67°17' E 014°23'0 0.0
2017-Jun-16 12:00N 67°17' E 014°23'0 0.0
2017-Jun-16 11:30N 67°17' E 014°23'0 0.0
2017-Jun-16 11:01N 67°17' E 014°23'0 0.0
2017-Jun-16 10:30N 67°17' E 014°23'0 0.0
2017-Jun-16 10:00N 67°17' E 014°23'0 0.0
2017-Jun-16 09:31N 67°17' E 014°23'0 0.0
2017-Jun-16 09:01N 67°17' E 014°23'0 0.0
2017-Jun-16 08:30N 67°17' E 014°23'0 0.0
2017-Jun-16 08:00N 67°17' E 014°23'0 0.0
2017-Jun-16 07:31N 67°17' E 014°23'0 0.0
2017-Jun-16 07:00N 67°17' E 014°23'0 0.0
2017-Jun-16 06:30N 67°17' E 014°23'0 0.0
2017-Jun-16 06:00N 67°17' E 014°23'0 0.0
2017-Jun-16 05:30N 67°17' E 014°23'0 0.0
2017-Jun-16 05:00N 67°17' E 014°23'0 0.0
2017-Jun-16 04:30N 67°17' E 014°23'0 0.0
2017-Jun-16 04:00N 67°17' E 014°23'0 0.0
2017-Jun-16 03:31N 67°17' E 014°23'0 0.0
2017-Jun-16 03:00N 67°17' E 014°23'0 0.0
2017-Jun-16 02:31N 67°17' E 014°23'0 0.0
2017-Jun-16 02:01N 67°17' E 014°23'0 0.0
2017-Jun-16 01:30N 67°17' E 014°23'0 0.0
2017-Jun-16 01:01N 67°17' E 014°23'0 0.0
2017-Jun-16 00:30N 67°17' E 014°23'0 0.0
2017-Jun-16 00:00N 67°17' E 014°23'0 0.0
2017-Jun-15 23:30N 67°17' E 014°23'0 0.0
2017-Jun-15 23:00N 67°17' E 014°23'0 0.0
2017-Jun-15 22:30N 67°17' E 014°23'0 0.0
2017-Jun-15 22:01N 67°17' E 014°23'0 0.0
2017-Jun-15 21:31N 67°17' E 014°23'0 0.0
2017-Jun-15 21:01N 67°17' E 014°23'0 0.0
2017-Jun-15 20:30N 67°17' E 014°23'0 0.0
2017-Jun-15 20:01N 67°17' E 014°23'0 0.0
2017-Jun-15 19:30N 67°17' E 014°23'0 0.0
2017-Jun-15 19:00N 67°17' E 014°23'0 0.0
2017-Jun-15 18:30N 67°17' E 014°23'0 0.0
2017-Jun-15 18:00N 67°17' E 014°23'0 0.0
2017-Jun-15 17:30N 67°17' E 014°23'0 0.0
2017-Jun-15 17:01N 67°17' E 014°23'0 0.0
2017-Jun-15 16:30N 67°17' E 014°23'0 0.0
2017-Jun-15 16:00N 67°17' E 014°23'0 0.0
2017-Jun-15 15:30N 67°17' E 014°23'0 0.0
2017-Jun-15 15:00N 67°17' E 014°23'0 0.0
2017-Jun-15 14:00N 67°17' E 014°23'0 0.0
2017-Jun-15 13:31N 67°17' E 014°23'0 0.0
2017-Jun-15 13:00N 67°17' E 014°23'0 0.0
2017-Jun-15 12:30N 67°17' E 014°23'0 0.0
2017-Jun-15 12:00N 67°17' E 014°23'0 0.0
2017-Jun-15 11:30N 67°17' E 014°23'0 0.0
2017-Jun-15 11:00N 67°17' E 014°23'0 0.0
2017-Jun-15 10:30N 67°17' E 014°23'0 0.0
2017-Jun-15 10:01N 67°17' E 014°23'0 0.0
2017-Jun-15 09:31N 67°17' E 014°23'0 0.0
2017-Jun-15 09:00N 67°17' E 014°23'0 0.0
2017-Jun-15 08:30N 67°17' E 014°23'0 0.0
2017-Jun-15 08:01N 67°17' E 014°23'0 0.0
2017-Jun-15 07:30N 67°17' E 014°23'0 0.0
2017-Jun-15 07:00N 67°17' E 014°23'0 0.0
2017-Jun-15 06:31N 67°17' E 014°23'0 0.0
2017-Jun-15 06:00N 67°17' E 014°23'0 0.0
2017-Jun-15 05:30N 67°17' E 014°23'0 0.0
2017-Jun-15 05:00N 67°17' E 014°23'1 2.2
2017-Jun-15 04:31N 67°17' E 014°20'3 6.4
2017-Jun-15 04:00N 67°15' E 014°13'4 8.2
2017-Jun-15 03:30N 67°12' E 014°07'4 8.5
2017-Jun-15 03:01N 67°08' E 014°02'4 7.2
2017-Jun-15 02:30N 67°05' E 013°56'3 6.7
2017-Jun-15 02:00N 67°03' E 013°51'4 8.3
2017-Jun-15 01:30N 67°01' E 013°42'4 8.5
2017-Jun-15 01:00N 66°58' E 013°33'4 7.8
2017-Jun-15 00:29N 66°54' E 013°28'4 8.4
2017-Jun-15 00:00N 66°52' E 013°20'4 8.2
2017-Jun-14 23:30N 66°48' E 013°15'4 8.5
2017-Jun-14 23:01N 66°44' E 013°12'4 8.5
2017-Jun-14 22:30N 66°40' E 013°08'4 8.4
2017-Jun-14 22:00N 66°36' E 013°04'4 7.4
2017-Jun-14 21:30N 66°33' E 013°01'2 3.9
2017-Jun-14 21:00N 66°32' E 012°57'1 1.3
2017-Jun-14 20:30N 66°31' E 012°57'2 4.3
2017-Jun-14 20:00N 66°29' E 012°59'3 6.3
2017-Jun-14 19:30N 66°26' E 012°60'5 9.8
2017-Jun-14 19:00N 66°21' E 012°59'5 9.9
2017-Jun-14 18:30N 66°16' E 012°56'612.4
2017-Jun-14 18:00N 66°11' E 012°50'712.8
2017-Jun-14 17:29N 66°05' E 012°41'612.9
2017-Jun-14 17:00N 66°00' E 012°31'612.9
2017-Jun-14 16:30N 65°55' E 012°23'612.7
2017-Jun-14 16:00N 65°49' E 012°21'612.4
2017-Jun-14 15:30N 65°43' E 012°16'612.4
2017-Jun-14 15:00N 65°37' E 012°11'1211.6
2017-Jun-14 14:00N 65°29' E 011°50'611.8
2017-Jun-14 13:30N 65°27' E 011°37'611.7
2017-Jun-14 13:00N 65°23' E 011°26'611.2
2017-Jun-14 12:30N 65°19' E 011°17'510.7
2017-Jun-14 12:00N 65°17' E 011°05'611.8
2017-Jun-14 11:30N 65°16' E 010°51'612.0
2017-Jun-14 11:00N 65°14' E 010°38'4 8.7
2017-Jun-14 10:30N 65°11' E 010°30'9211.5
2017-Jun-14 02:27N 63°59' E 008°15'511.8
2017-Jun-14 01:59N 63°55' E 008°07'611.7
2017-Jun-14 01:30N 63°50' E 007°59'611.6
2017-Jun-14 01:00N 63°46' E 007°50'611.5
2017-Jun-14 00:30N 63°41' E 007°42'  

Dump ship's entire track history